Time;durP1;ratioP1;P1;durP2;ratioP2;P2;SDS_P1;SDS_P2;PMS_P1;PMS_P2;Temp;Humidity;BMP_temperature;BMP_pressure;BME280_temperature;BME280_humidity;BME280_pressure;Samples;Min_cycle;Max_cycle;Signal;HPM_P1;HPM_P2
2023/10/08 00:01:35;;;;;;;0.90;0.90;;;20.00;68.00;;;;;;5095442;28;20123;-76
2023/10/08 00:04:04;;;;;;;0.85;0.85;;;20.00;68.10;;;;;;5094937;28;20122;-76
2023/10/08 00:06:30;;;;;;;0.77;0.77;;;20.00;68.00;;;;;;5083270;28;20536;-76
2023/10/08 00:08:59;;;;;;;1.00;1.00;;;20.00;68.10;;;;;;5093387;28;20048;-76
2023/10/08 00:11:29;;;;;;;0.77;0.77;;;20.00;68.20;;;;;;5092465;28;20176;-76
2023/10/08 00:13:56;;;;;;;0.90;0.90;;;20.00;68.10;;;;;;5097056;28;20059;-76
2023/10/08 00:16:22;;;;;;;1.20;1.13;;;20.00;68.10;;;;;;5087571;28;20161;-76
2023/10/08 00:18:50;;;;;;;1.05;0.98;;;20.00;68.10;;;;;;5069752;28;20352;-76
2023/10/08 00:21:16;;;;;;;1.08;1.05;;;20.00;68.20;;;;;;5095285;28;20051;-76
2023/10/08 00:23:48;;;;;;;1.00;1.00;;;20.00;68.20;;;;;;5091816;28;20088;-76
2023/10/08 00:26:18;;;;;;;1.00;1.00;;;20.00;68.10;;;;;;5091976;28;20139;-76
2023/10/08 00:28:47;;;;;;;1.15;1.05;;;20.00;68.10;;;;;;5096831;28;20093;-76
2023/10/08 00:31:17;;;;;;;1.00;1.00;;;20.00;68.20;;;;;;5091373;28;20071;-76
2023/10/08 00:33:44;;;;;;;1.20;1.20;;;20.00;68.10;;;;;;5094697;28;20052;-76
2023/10/08 00:36:19;;;;;;;1.00;1.00;;;20.00;68.20;;;;;;5095561;28;20606;-76
2023/10/08 00:38:49;;;;;;;0.82;0.82;;;20.00;68.20;;;;;;5099639;28;20047;-76
2023/10/08 00:41:15;;;;;;;0.90;0.90;;;20.00;68.20;;;;;;5099210;28;20050;-76
2023/10/08 00:43:41;;;;;;;1.10;1.10;;;20.00;68.30;;;;;;5095532;28;20032;-76
2023/10/08 00:48:54;;;;;;;0.95;0.95;;;20.00;68.30;;;;;;5077196;28;20159;-76
2023/10/08 00:54:08;;;;;;;0.90;0.90;;;20.00;68.30;;;;;;5098317;28;20394;-76
2023/10/08 00:59:41;;;;;;;0.90;0.90;;;20.00;68.20;;;;;;5093598;28;20036;-76
2023/10/08 01:02:08;;;;;;;0.98;0.98;;;20.00;68.30;;;;;;5099395;28;20522;-76
2023/10/08 01:04:34;;;;;;;0.80;0.80;;;20.00;68.20;;;;;;5077490;28;20516;-76
2023/10/08 01:07:02;;;;;;;0.93;0.93;;;20.00;68.30;;;;;;5079726;28;20040;-76
2023/10/08 01:09:37;;;;;;;1.02;1.00;;;20.00;68.30;;;;;;5090277;28;20058;-76
2023/10/08 01:12:26;;;;;;;1.02;1.02;;;20.00;68.10;;;;;;5082706;28;20079;-76
2023/10/08 01:14:55;;;;;;;1.05;0.98;;;20.00;68.10;;;;;;5090350;28;20072;-76
2023/10/08 01:17:24;;;;;;;0.90;0.90;;;20.00;68.20;;;;;;5100992;28;20039;-76
2023/10/08 01:20:00;;;;;;;0.98;0.98;;;20.00;68.20;;;;;;5099056;28;20075;-76
2023/10/08 01:22:29;;;;;;;0.80;0.80;;;20.00;68.20;;;;;;5099905;28;20062;-76
2023/10/08 01:24:54;;;;;;;1.10;1.00;;;20.00;68.30;;;;;;5094485;28;20069;-76
2023/10/08 01:27:24;;;;;;;0.90;0.90;;;20.00;68.20;;;;;;5091580;28;20043;-76
2023/10/08 01:29:50;;;;;;;0.73;0.73;;;20.00;68.20;;;;;;5093585;28;20758;-76
2023/10/08 01:32:23;;;;;;;0.95;0.95;;;20.00;68.00;;;;;;5095901;28;20463;-76
2023/10/08 01:34:48;;;;;;;1.15;1.15;;;20.00;68.10;;;;;;5099426;28;20448;-76
2023/10/08 01:37:16;;;;;;;0.80;0.80;;;20.00;68.10;;;;;;5097519;28;20043;-76
2023/10/08 01:39:43;;;;;;;1.38;1.00;;;20.00;68.10;;;;;;5089035;28;20091;-76
2023/10/08 01:42:28;;;;;;;0.80;0.80;;;20.00;68.00;;;;;;5099336;28;21224;-76
2023/10/08 01:44:56;;;;;;;0.82;0.82;;;19.90;67.90;;;;;;5091089;28;20043;-76
2023/10/08 01:47:25;;;;;;;1.02;1.00;;;19.90;68.00;;;;;;5113069;27;20046;-76
2023/10/08 01:49:53;;;;;;;0.98;0.98;;;19.90;67.80;;;;;;5098234;28;20047;-76
2023/10/08 01:52:21;;;;;;;0.77;0.77;;;20.00;68.00;;;;;;5097790;28;20105;-76
2023/10/08 01:54:48;;;;;;;0.88;0.88;;;19.90;67.90;;;;;;5092196;28;20055;-76
2023/10/08 01:57:14;;;;;;;0.90;0.90;;;20.00;68.00;;;;;;5098587;28;20404;-76
2023/10/08 01:59:40;;;;;;;0.88;0.88;;;19.90;67.90;;;;;;5096028;28;20055;-76
2023/10/08 02:02:06;;;;;;;1.20;1.15;;;19.90;67.90;;;;;;5097361;28;20458;-76
2023/10/08 02:04:35;;;;;;;1.00;1.00;;;19.90;67.90;;;;;;5092412;28;20048;-76
2023/10/08 02:07:03;;;;;;;0.90;0.90;;;19.90;67.80;;;;;;5095588;28;20122;-76
2023/10/08 02:09:33;;;;;;;0.75;0.75;;;19.90;67.80;;;;;;5094681;28;20040;-76
2023/10/08 02:11:58;;;;;;;1.30;1.20;;;19.90;67.80;;;;;;5093751;28;20182;-76
2023/10/08 02:14:24;;;;;;;1.10;1.02;;;19.90;68.60;;;;;;5096493;28;20053;-76
2023/10/08 02:16:54;;;;;;;1.30;1.20;;;19.90;67.80;;;;;;5097830;28;20502;-76
2023/10/08 02:19:26;;;;;;;0.90;0.90;;;19.90;67.80;;;;;;5098515;28;20044;-76
2023/10/08 02:21:54;;;;;;;0.80;0.80;;;19.90;67.70;;;;;;5093664;28;20048;-76
2023/10/08 02:24:21;;;;;;;1.00;0.90;;;19.90;67.80;;;;;;5100416;28;20032;-76
2023/10/08 02:26:47;;;;;;;1.00;1.00;;;19.90;67.80;;;;;;5076812;28;20033;-76
2023/10/08 02:29:13;;;;;;;1.20;1.20;;;19.90;67.80;;;;;;5079085;28;20047;-76
2023/10/08 02:31:39;;;;;;;0.70;0.70;;;19.90;67.80;;;;;;5088054;28;20040;-76
2023/10/08 02:34:07;;;;;;;1.05;1.05;;;19.90;67.70;;;;;;5089538;28;20133;-76
2023/10/08 02:36:36;;;;;;;1.08;0.98;;;19.90;68.60;;;;;;5090699;28;20516;-76
2023/10/08 02:39:07;;;;;;;1.00;1.00;;;19.90;67.80;;;;;;5095086;28;20040;-76
2023/10/08 02:41:33;;;;;;;0.88;0.88;;;19.90;67.70;;;;;;5091888;28;20847;-76
2023/10/08 02:44:01;;;;;;;0.80;0.80;;;19.90;67.70;;;;;;5101357;28;20039;-76
2023/10/08 02:46:29;;;;;;;0.80;0.80;;;19.90;67.80;;;;;;5111758;27;20035;-76
2023/10/08 02:48:55;;;;;;;0.65;0.65;;;19.90;67.80;;;;;;5096173;28;20516;-76
2023/10/08 02:51:21;;;;;;;0.82;0.82;;;19.90;67.80;;;;;;5091579;28;20043;-75
2023/10/08 02:53:46;;;;;;;0.80;0.80;;;19.90;67.80;;;;;;5093883;28;20040;-76
2023/10/08 02:56:13;;;;;;;1.13;0.95;;;19.90;67.70;;;;;;5092272;28;20089;-76
2023/10/08 02:58:43;;;;;;;1.42;0.93;;;19.90;67.70;;;;;;5097375;28;20040;-76
2023/10/08 03:01:12;;;;;;;0.63;0.63;;;19.90;67.70;;;;;;5087920;28;20043;-76
2023/10/08 03:03:40;;;;;;;0.80;0.80;;;19.90;67.80;;;;;;5096226;28;20039;-76
2023/10/08 03:06:11;;;;;;;0.80;0.80;;;19.90;67.70;;;;;;5095758;28;20035;-76
2023/10/08 03:08:37;;;;;;;1.05;1.05;;;19.90;68.60;;;;;;5092352;28;20105;-76
2023/10/08 03:11:03;;;;;;;0.80;0.80;;;19.90;67.80;;;;;;5099602;28;21182;-76
2023/10/08 03:13:29;;;;;;;0.98;0.98;;;19.90;67.90;;;;;;5090489;28;20089;-76
2023/10/08 03:18:35;;;;;;;0.90;0.90;;;19.90;67.90;;;;;;5093251;28;20040;-76
2023/10/08 03:21:04;;;;;;;0.98;0.98;;;19.90;67.80;;;;;;5091448;28;20586;-76
2023/10/08 03:23:34;;;;;;;0.88;0.70;;;19.90;67.90;;;;;;5095374;28;20048;-76
2023/10/08 03:26:01;;;;;;;0.80;0.80;;;19.90;67.80;;;;;;5080643;28;20068;-76
2023/10/08 03:28:28;;;;;;;0.80;0.80;;;19.90;68.00;;;;;;5092711;28;20494;-76
2023/10/08 03:33:39;;;;;;;0.73;0.73;;;19.90;67.80;;;;;;5088329;28;20132;-76
2023/10/08 03:36:20;;;;;;;0.90;0.90;;;19.90;67.90;;;;;;5088333;28;20492;-76
2023/10/08 03:38:52;;;;;;;0.95;0.95;;;19.90;68.00;;;;;;5089767;28;20075;-76
2023/10/08 03:41:27;;;;;;;0.98;0.98;;;19.90;67.80;;;;;;5089650;28;20056;-75
2023/10/08 03:43:55;;;;;;;0.75;0.75;;;19.90;67.90;;;;;;5110928;28;20119;-76
2023/10/08 03:46:23;;;;;;;0.90;0.90;;;19.90;68.00;;;;;;5086706;28;20063;-76
2023/10/08 03:48:51;;;;;;;0.80;0.80;;;19.90;68.00;;;;;;5094614;28;20107;-76
2023/10/08 03:51:20;;;;;;;0.95;0.95;;;19.90;68.70;;;;;;5090497;28;20579;-76
2023/10/08 03:56:31;;;;;;;1.00;1.00;;;19.90;68.00;;;;;;5095605;28;20089;-76
2023/10/08 03:59:12;;;;;;;0.82;0.82;;;19.90;68.10;;;;;;5097921;28;20446;-76
2023/10/08 04:01:40;;;;;;;0.80;0.80;;;19.90;68.20;;;;;;5091814;28;20036;-76
2023/10/08 04:04:12;;;;;;;0.70;0.70;;;19.90;68.10;;;;;;5095607;28;20043;-76
2023/10/08 04:06:38;;;;;;;0.85;0.68;;;19.90;67.90;;;;;;5090203;28;20048;-76
2023/10/08 04:11:35;;;;;;;0.88;0.88;;;19.80;68.00;;;;;;5102572;28;20044;-76
2023/10/08 04:14:02;;;;;;;1.23;0.80;;;19.90;68.00;;;;;;5099120;28;20131;-76
2023/10/08 04:16:28;;;;;;;0.80;0.80;;;19.90;68.00;;;;;;5099510;28;20104;-76
2023/10/08 04:18:57;;;;;;;1.05;0.93;;;19.90;68.30;;;;;;5097601;28;20032;-76
2023/10/08 04:21:27;;;;;;;0.80;0.80;;;19.90;68.00;;;;;;5095317;28;20071;-76
2023/10/08 04:23:53;;;;;;;0.80;0.80;;;19.90;67.90;;;;;;5095019;28;20283;-76
2023/10/08 04:26:23;;;;;;;1.48;0.82;;;19.80;67.80;;;;;;5103489;28;20120;-76
2023/10/08 04:29:02;;;;;;;0.80;0.80;;;19.80;68.00;;;;;;5097757;28;20117;-76
2023/10/08 04:31:28;;;;;;;1.10;1.00;;;19.90;68.00;;;;;;5097074;28;20470;-76
2023/10/08 04:33:54;;;;;;;0.90;0.90;;;19.80;67.90;;;;;;5095605;28;20509;-76
2023/10/08 04:36:20;;;;;;;0.90;0.90;;;19.80;68.10;;;;;;5082211;28;20043;-76
2023/10/08 04:38:48;;;;;;;0.90;0.90;;;19.80;67.90;;;;;;5101391;28;20123;-76
2023/10/08 04:41:18;;;;;;;0.60;0.60;;;19.80;67.90;;;;;;5098522;28;20416;-76
2023/10/08 04:43:44;;;;;;;1.10;1.10;;;19.80;68.10;;;;;;5097284;28;20517;-76
2023/10/08 04:46:24;;;;;;;0.80;0.80;;;19.80;68.00;;;;;;5098601;28;20074;-76
2023/10/08 04:48:51;;;;;;;0.90;0.90;;;19.80;68.00;;;;;;5096352;28;20028;-76
2023/10/08 04:51:17;;;;;;;0.70;0.70;;;19.90;67.70;;;;;;5094349;28;20104;-76
2023/10/08 04:53:44;;;;;;;1.02;1.02;;;19.80;67.70;;;;;;5096137;28;20055;-76
2023/10/08 04:56:16;;;;;;;0.77;0.77;;;19.80;67.90;;;;;;5102817;28;20054;-76
2023/10/08 04:58:46;;;;;;;0.95;0.88;;;19.80;67.90;;;;;;5096176;28;20118;-76
2023/10/08 05:01:17;;;;;;;0.70;0.70;;;19.80;68.50;;;;;;5077400;28;20035;-76
2023/10/08 05:07:17;;;;;;;0.90;0.90;;;19.80;68.10;;;;;;5093315;28;20063;-76
2023/10/08 05:14:27;;;;;;;0.90;0.90;;;19.80;68.10;;;;;;5100061;28;20056;-76
2023/10/08 05:17:03;;;;;;;0.70;0.70;;;19.80;68.80;;;;;;5109692;27;20413;-76
2023/10/08 05:19:48;;;;;;;0.70;0.70;;;19.80;67.80;;;;;;5094923;28;20125;-76
2023/10/08 05:27:38;;;;;;;;;;;19.80;68.00;;;;;;5094695;28;20138;-76
2023/10/08 05:30:16;;;;;;;0.80;0.80;;;19.80;68.20;;;;;;5096510;28;19916;-76
2023/10/08 05:38:21;;;;;;;0.70;0.70;;;19.70;68.20;;;;;;5098359;28;20044;-76
2023/10/08 06:00:45;;;;;;;0.90;0.90;;;19.70;68.10;;;;;;5012658;28;20599;-75
2023/10/08 06:13:05;;;;;;;0.98;0.93;;;19.80;68.00;;;;;;5009063;28;20452;-76
2023/10/08 06:16:05;;;;;;;;;;;19.70;68.20;;;;;;5009651;28;20049;-76
2023/10/08 06:18:31;;;;;;;0.70;0.70;;;19.80;68.20;;;;;;5009526;28;19983;-76
2023/10/08 06:21:11;;;;;;;0.70;0.70;;;19.70;68.00;;;;;;5011049;28;20026;-76
2023/10/08 06:23:38;;;;;;;0.82;0.82;;;19.70;67.90;;;;;;5014112;28;20054;-76
2023/10/08 06:28:37;;;;;;;0.80;0.80;;;19.70;68.10;;;;;;5090999;28;20063;-76
2023/10/08 06:31:11;;;;;;;0.73;0.73;;;19.70;68.20;;;;;;5086334;28;20040;-76
2023/10/08 06:33:37;;;;;;;0.70;0.70;;;19.80;68.20;;;;;;5076400;28;20093;-76
2023/10/08 06:36:05;;;;;;;1.10;0.70;;;19.70;68.20;;;;;;5089533;28;20036;-75
2023/10/08 06:38:34;;;;;;;0.75;0.75;;;19.70;68.00;;;;;;5075970;28;20047;-76
2023/10/08 06:41:00;;;;;;;0.70;0.70;;;19.70;67.90;;;;;;5113622;27;20037;-76
2023/10/08 06:43:29;;;;;;;0.75;0.75;;;19.70;68.00;;;;;;5095976;28;20051;-76
2023/10/08 06:46:00;;;;;;;0.70;0.70;;;19.70;67.90;;;;;;5095013;28;20039;-76
2023/10/08 06:48:29;;;;;;;0.68;0.68;;;19.70;68.00;;;;;;5107213;27;20497;-76
2023/10/08 06:50:56;;;;;;;0.70;0.70;;;19.80;68.20;;;;;;5099196;28;20059;-76
2023/10/08 06:53:22;;;;;;;0.70;0.70;;;19.70;68.00;;;;;;5088903;28;20108;-76
2023/10/08 06:55:48;;;;;;;0.70;0.70;;;19.70;68.10;;;;;;5110848;27;20135;-76
2023/10/08 06:58:14;;;;;;;0.75;0.75;;;19.70;67.90;;;;;;5092593;28;20040;-76
2023/10/08 07:00:40;;;;;;;0.82;0.82;;;19.70;67.70;;;;;;5096479;28;20035;-76
2023/10/08 07:03:14;;;;;;;0.88;0.88;;;19.80;68.90;;;;;;5093835;28;20047;-76
2023/10/08 07:05:40;;;;;;;0.60;0.60;;;19.70;67.80;;;;;;5099941;28;20032;-76
2023/10/08 07:08:07;;;;;;;0.90;0.90;;;19.80;67.80;;;;;;5093881;28;20477;-76
2023/10/08 07:10:36;;;;;;;0.60;0.60;;;19.80;67.80;;;;;;5087680;28;20493;-76
2023/10/08 07:13:07;;;;;;;0.80;0.80;;;19.70;67.80;;;;;;5093316;28;20126;-76
2023/10/08 07:15:33;;;;;;;0.70;0.70;;;19.70;67.60;;;;;;5093939;28;20056;-76
2023/10/08 07:18:08;;;;;;;0.90;0.90;;;19.80;68.40;;;;;;5093353;28;20039;-76
2023/10/08 07:20:41;;;;;;;0.80;0.80;;;19.70;67.50;;;;;;5078085;28;20036;-76
2023/10/08 07:23:18;;;;;;;0.90;0.90;;;19.70;67.40;;;;;;5101231;28;20513;-76
2023/10/08 07:25:51;;;;;;;0.93;0.93;;;19.70;67.50;;;;;;5094920;28;20464;-76
2023/10/08 07:28:19;;;;;;;0.70;0.70;;;19.70;67.40;;;;;;5086388;28;20531;-76
2023/10/08 07:30:45;;;;;;;0.90;0.90;;;19.70;67.40;;;;;;5088053;28;20429;-76
2023/10/08 07:33:24;;;;;;;1.00;1.00;;;19.80;67.40;;;;;;5096415;28;20523;-76
2023/10/08 07:36:11;;;;;;;0.90;0.90;;;19.70;67.50;;;;;;5094478;28;20047;-77
2023/10/08 07:38:39;;;;;;;0.80;0.80;;;19.80;67.40;;;;;;5096351;28;20044;-76
2023/10/08 07:41:05;;;;;;;0.70;0.70;;;19.80;67.30;;;;;;5096192;28;22104;-76
2023/10/08 07:43:32;;;;;;;0.80;0.80;;;19.80;67.30;;;;;;5095345;28;20039;-75
2023/10/08 07:45:58;;;;;;;0.80;0.80;;;19.80;67.20;;;;;;5100963;28;20043;-76
2023/10/08 07:48:29;;;;;;;0.70;0.70;;;19.80;67.10;;;;;;5100763;28;20044;-75
2023/10/08 07:50:55;;;;;;;0.75;0.75;;;19.80;67.20;;;;;;5102955;28;20071;-76
2023/10/08 07:53:21;;;;;;;0.70;0.70;;;19.80;67.40;;;;;;5105004;27;20519;-76
2023/10/08 07:55:47;;;;;;;0.70;0.70;;;19.80;67.20;;;;;;5104547;28;20044;-76
2023/10/08 07:58:14;;;;;;;0.68;0.68;;;19.80;67.20;;;;;;5100980;28;20658;-76
2023/10/08 08:00:40;;;;;;;0.85;0.85;;;19.80;67.30;;;;;;5101526;27;20031;-76
2023/10/08 08:03:06;;;;;;;0.63;0.63;;;19.80;67.40;;;;;;5105811;28;20494;-76
2023/10/08 08:05:34;;;;;;;0.77;0.75;;;19.80;67.10;;;;;;5096900;28;20097;-76
2023/10/08 08:08:05;;;;;;;0.88;0.88;;;19.80;67.90;;;;;;5109332;28;20027;-76
2023/10/08 08:10:36;;;;;;;0.70;0.70;;;19.80;67.10;;;;;;5098206;27;20041;-76
2023/10/08 08:13:05;;;;;;;0.73;0.73;;;19.80;67.10;;;;;;5107631;27;20047;-76
2023/10/08 08:15:33;;;;;;;0.85;0.70;;;19.80;67.10;;;;;;5099150;28;20047;-76
2023/10/08 08:17:58;;;;;;;0.70;0.70;;;19.80;67.00;;;;;;5099949;28;20096;-76
2023/10/08 08:20:34;;;;;;;0.70;0.68;;;19.80;67.10;;;;;;5106813;28;20450;-76
2023/10/08 08:23:06;;;;;;;0.82;0.82;;;19.80;67.10;;;;;;5105167;28;20130;-76
2023/10/08 08:25:45;;;;;;;0.85;0.85;;;19.80;67.20;;;;;;5101556;28;20078;-76
2023/10/08 08:28:17;;;;;;;0.82;0.82;;;19.80;67.10;;;;;;5098545;28;20056;-76
2023/10/08 08:30:46;;;;;;;0.85;0.85;;;19.80;67.10;;;;;;5095413;27;20050;-76
2023/10/08 08:33:16;;;;;;;0.80;0.80;;;19.80;67.10;;;;;;5114911;27;20133;-76
2023/10/08 08:35:42;;;;;;;0.85;0.85;;;19.80;67.40;;;;;;5094119;28;20044;-75
2023/10/08 08:38:08;;;;;;;0.82;0.82;;;19.80;67.30;;;;;;5102912;28;20044;-76
2023/10/08 08:40:34;;;;;;;0.90;0.90;;;19.80;67.30;;;;;;5099665;28;20032;-76
2023/10/08 08:43:03;;;;;;;0.90;0.90;;;19.90;67.20;;;;;;5094203;28;20416;-75
2023/10/08 08:45:33;;;;;;;1.13;0.95;;;19.90;67.10;;;;;;5066266;28;20481;-76
2023/10/08 08:47:58;;;;;;;0.90;0.90;;;19.90;68.00;;;;;;5100783;28;20126;-76
2023/10/08 08:50:26;;;;;;;0.77;0.77;;;19.90;66.90;;;;;;5101769;28;20135;-76
2023/10/08 08:52:52;;;;;;;0.68;0.68;;;19.90;67.00;;;;;;5118250;27;20043;-76
2023/10/08 08:55:18;;;;;;;0.60;0.60;;;19.90;66.90;;;;;;5099231;28;20028;-76
2023/10/08 08:57:47;;;;;;;0.90;0.90;;;20.00;66.80;;;;;;5076983;28;20031;-76
2023/10/08 09:00:14;;;;;;;0.68;0.68;;;19.90;66.90;;;;;;5097696;28;20055;-76
2023/10/08 09:02:40;;;;;;;0.70;0.70;;;20.00;66.90;;;;;;5095596;28;20094;-76
2023/10/08 09:05:25;;;;;;;0.65;0.65;;;20.00;67.10;;;;;;5097620;28;20035;-76
2023/10/08 09:08:07;;;;;;;0.82;0.82;;;20.00;67.70;;;;;;5101796;28;20028;-76
2023/10/08 09:10:37;;;;;;;0.93;0.93;;;20.00;66.90;;;;;;5093981;28;20148;-76
2023/10/08 09:13:07;;;;;;;0.70;0.70;;;20.00;66.80;;;;;;5097227;28;20036;-76
2023/10/08 09:15:32;;;;;;;0.60;0.60;;;20.00;66.90;;;;;;5095578;28;20125;-76
2023/10/08 09:18:04;;;;;;;0.90;0.90;;;20.00;67.10;;;;;;5101089;28;20463;-76
2023/10/08 09:20:31;;;;;;;0.70;0.70;;;20.00;67.10;;;;;;5098049;28;20048;-76
2023/10/08 09:23:21;;;;;;;0.85;0.85;;;20.10;67.10;;;;;;5097967;28;20037;-76
2023/10/08 09:25:49;;;;;;;0.75;0.75;;;20.00;67.20;;;;;;5097116;28;20039;-76
2023/10/08 09:28:16;;;;;;;0.73;0.73;;;20.00;67.10;;;;;;5088415;28;20517;-76
2023/10/08 09:30:44;;;;;;;0.70;0.70;;;20.00;67.30;;;;;;5097485;28;20152;-76
2023/10/08 09:33:12;;;;;;;0.70;0.70;;;20.10;67.40;;;;;;5099863;28;20524;-76
2023/10/08 09:35:37;;;;;;;0.70;0.70;;;20.00;67.30;;;;;;5094078;28;20044;-76
2023/10/08 09:38:04;;;;;;;0.73;0.70;;;20.00;67.20;;;;;;5090653;28;20036;-76
2023/10/08 09:40:29;;;;;;;1.25;0.95;;;20.10;67.30;;;;;;5095601;28;20031;-76
2023/10/08 09:42:55;;;;;;;0.80;0.80;;;20.00;67.00;;;;;;5096204;28;20397;-76
2023/10/08 09:45:21;;;;;;;0.70;0.70;;;20.00;67.10;;;;;;5096177;28;20028;-76
2023/10/08 09:47:52;;;;;;;0.60;0.60;;;20.00;67.10;;;;;;5095978;28;20036;-76
2023/10/08 09:50:29;;;;;;;0.52;0.52;;;20.10;67.10;;;;;;5113612;27;20039;-76
2023/10/08 09:53:16;;;;;;;0.85;0.73;;;20.00;67.00;;;;;;5096914;28;20040;-76
2023/10/08 09:55:54;;;;;;;0.70;0.70;;;20.00;66.90;;;;;;5114130;27;20043;-76
2023/10/08 09:58:20;;;;;;;0.73;0.73;;;20.10;66.90;;;;;;5091084;28;20054;-76
2023/10/08 10:00:48;;;;;;;0.73;0.73;;;20.10;66.90;;;;;;5077272;28;20052;-76
2023/10/08 10:03:14;;;;;;;0.75;0.75;;;20.10;66.80;;;;;;5056481;28;20050;-76
2023/10/08 10:05:40;;;;;;;0.85;0.85;;;20.10;66.80;;;;;;5114035;27;20106;-76
2023/10/08 10:08:05;;;;;;;0.90;0.90;;;20.10;66.70;;;;;;5070210;28;20032;-76
2023/10/08 10:10:34;;;;;;;0.75;0.75;;;20.10;66.50;;;;;;5094344;28;20044;-76
2023/10/08 10:13:03;;;;;;;0.73;0.70;;;20.10;66.60;;;;;;5095617;28;20039;-76
2023/10/08 10:15:30;;;;;;;0.90;0.90;;;20.10;66.50;;;;;;5092013;28;21102;-76
2023/10/08 10:17:59;;;;;;;0.70;0.70;;;20.10;66.40;;;;;;5093073;28;20048;-76
2023/10/08 10:20:25;;;;;;;0.90;0.90;;;20.10;66.40;;;;;;5094910;28;20066;-76
2023/10/08 10:22:50;;;;;;;0.88;0.70;;;20.20;66.40;;;;;;5096918;28;20035;-76
2023/10/08 10:25:20;;;;;;;0.70;0.70;;;20.10;66.30;;;;;;5103754;27;20052;-76
2023/10/08 10:28:14;;;;;;;0.80;0.80;;;20.10;66.20;;;;;;5095322;28;20092;-76
2023/10/08 10:30:41;;;;;;;0.75;0.75;;;20.20;66.10;;;;;;5090067;28;20036;-76
2023/10/08 10:33:06;;;;;;;0.77;0.77;;;20.20;66.10;;;;;;5094630;28;20406;-76
2023/10/08 10:35:32;;;;;;;0.80;0.80;;;20.20;66.10;;;;;;5097876;28;20056;-76
2023/10/08 10:38:03;;;;;;;0.90;0.90;;;20.20;65.90;;;;;;5112941;27;21030;-76
2023/10/08 10:40:40;;;;;;;0.60;0.60;;;20.20;66.00;;;;;;5072448;28;20549;-76
2023/10/08 10:43:06;;;;;;;0.88;0.88;;;20.20;66.00;;;;;;5093881;28;20059;-76
2023/10/08 10:45:36;;;;;;;0.93;0.80;;;20.20;66.10;;;;;;5097448;28;20047;-76
2023/10/08 10:48:13;;;;;;;0.73;0.73;;;20.20;66.20;;;;;;5110567;27;20086;-76
2023/10/08 10:53:27;;;;;;;0.80;0.80;;;20.20;66.30;;;;;;5097687;28;20051;-76
2023/10/08 10:56:03;;;;;;;0.70;0.70;;;20.20;66.20;;;;;;5100722;28;20032;-76
2023/10/08 10:58:38;;;;;;;0.95;0.95;;;20.30;66.30;;;;;;5090231;28;20135;-76
2023/10/08 11:01:23;;;;;;;0.90;0.90;;;20.30;66.40;;;;;;5085257;28;20595;-76
2023/10/08 11:03:51;;;;;;;1.15;1.15;;;20.30;66.40;;;;;;5089124;28;20038;-76
2023/10/08 11:06:22;;;;;;;0.85;0.85;;;20.30;66.30;;;;;;5095729;28;20136;-76
2023/10/08 11:08:52;;;;;;;0.80;0.80;;;20.30;66.30;;;;;;5099821;28;20046;-76
2023/10/08 11:11:18;;;;;;;0.82;0.82;;;20.30;66.30;;;;;;5103626;27;20493;-76
2023/10/08 11:13:50;;;;;;;0.77;0.77;;;20.40;66.20;;;;;;5088595;28;20032;-76
2023/10/08 11:16:15;;;;;;;1.42;0.70;;;20.40;66.10;;;;;;5093952;28;20524;-76
2023/10/08 11:18:50;;;;;;;0.85;0.85;;;20.40;66.10;;;;;;5091971;28;20162;-76
2023/10/08 11:21:16;;;;;;;1.08;1.08;;;20.40;66.10;;;;;;5085351;28;20039;-76
2023/10/08 11:24:28;;;;;;;0.90;0.90;;;20.40;66.10;;;;;;5094673;28;20494;-75
2023/10/08 11:26:48;;;;;;;0.80;0.80;;;20.40;66.20;;;;;;5081858;28;20044;-76
2023/10/08 11:29:18;;;;;;;1.13;0.90;;;20.40;66.20;;;;;;5100704;28;20051;-76
2023/10/08 11:31:43;;;;;;;0.77;0.77;;;20.40;66.30;;;;;;5094975;28;20062;-76
2023/10/08 11:34:12;;;;;;;0.80;0.80;;;20.40;66.10;;;;;;5074355;28;20496;-76
2023/10/08 11:36:52;;;;;;;0.73;0.73;;;20.40;66.30;;;;;;5087731;28;20177;-76
2023/10/08 11:39:30;;;;;;;0.90;0.90;;;20.40;66.10;;;;;;5088226;28;20082;-76
2023/10/08 11:42:16;;;;;;;0.80;0.80;;;20.40;66.10;;;;;;5089204;28;20071;-76
2023/10/08 11:44:43;;;;;;;0.73;0.73;;;20.40;66.10;;;;;;5090695;28;20044;-75
2023/10/08 11:47:11;;;;;;;0.80;0.80;;;20.40;66.00;;;;;;5093273;28;20533;-76
2023/10/08 11:49:46;;;;;;;0.93;0.93;;;20.40;66.10;;;;;;5094113;28;20044;-76
2023/10/08 11:52:15;;;;;;;0.77;0.77;;;20.40;66.10;;;;;;5093329;28;20088;-76
2023/10/08 11:54:42;;;;;;;1.00;1.00;;;20.40;66.10;;;;;;5097208;28;20123;-76
2023/10/08 11:57:09;;;;;;;0.60;0.60;;;20.40;66.10;;;;;;5095567;28;20081;-76
2023/10/08 11:59:39;;;;;;;0.90;0.90;;;20.40;66.20;;;;;;5075028;28;20601;-76
2023/10/08 12:02:06;;;;;;;0.90;0.90;;;20.40;66.20;;;;;;5095134;28;20031;-76
2023/10/08 12:04:31;;;;;;;0.70;0.70;;;20.50;66.30;;;;;;5091314;28;20439;-76
2023/10/08 12:06:57;;;;;;;0.70;0.70;;;20.40;67.00;;;;;;5088902;28;20570;-76
2023/10/08 12:09:27;;;;;;;0.90;0.90;;;20.50;66.30;;;;;;5078163;28;20060;-76
2023/10/08 12:11:53;;;;;;;1.10;0.70;;;20.50;66.30;;;;;;5104602;28;20045;-76
2023/10/08 12:14:19;;;;;;;0.70;0.70;;;20.40;66.30;;;;;;5092496;28;20066;-76
2023/10/08 12:16:45;;;;;;;0.80;0.80;;;20.50;66.30;;;;;;5095655;28;20106;-76
2023/10/08 12:19:17;;;;;;;0.80;0.80;;;20.50;66.30;;;;;;5094624;28;20048;-76
2023/10/08 12:21:49;;;;;;;0.82;0.82;;;20.40;66.40;;;;;;5094740;28;20032;-76
2023/10/08 12:24:14;;;;;;;2.05;1.05;;;20.50;66.40;;;;;;5093125;28;20436;-76
2023/10/08 12:26:45;;;;;;;0.70;0.70;;;20.40;66.40;;;;;;5073277;28;20509;-76
2023/10/08 12:29:14;;;;;;;0.63;0.63;;;20.50;66.50;;;;;;5094934;28;20059;-76
2023/10/08 12:31:39;;;;;;;0.90;0.90;;;20.50;66.40;;;;;;5100493;28;20487;-76
2023/10/08 12:34:05;;;;;;;0.85;0.85;;;20.50;66.50;;;;;;5093759;28;20540;-76
2023/10/08 12:36:36;;;;;;;0.75;0.75;;;20.50;66.40;;;;;;5095380;28;20039;-76
2023/10/08 12:39:08;;;;;;;1.02;1.02;;;20.50;66.40;;;;;;5096359;28;20113;-76
2023/10/08 12:41:38;;;;;;;0.98;0.98;;;20.50;66.40;;;;;;5100180;28;20045;-76
2023/10/08 12:44:07;;;;;;;0.85;0.85;;;20.50;66.30;;;;;;5104980;28;20553;-76
2023/10/08 12:46:33;;;;;;;0.73;0.73;;;20.50;66.40;;;;;;5098996;28;20052;-76
2023/10/08 12:49:01;;;;;;;0.98;0.98;;;20.50;66.40;;;;;;5092561;28;20437;-76
2023/10/08 12:51:31;;;;;;;0.65;0.65;;;20.50;66.40;;;;;;5093415;28;20393;-76
2023/10/08 12:54:21;;;;;;;0.80;0.80;;;20.50;66.50;;;;;;5101212;28;20048;-76
2023/10/08 12:56:48;;;;;;;0.77;0.77;;;20.50;66.50;;;;;;5092010;28;20056;-76
2023/10/08 12:59:23;;;;;;;0.95;0.95;;;20.50;66.50;;;;;;5095888;28;20043;-76
2023/10/08 13:01:54;;;;;;;0.85;0.85;;;20.50;66.50;;;;;;5100474;28;20047;-76
2023/10/08 13:04:34;;;;;;;0.73;0.73;;;20.50;67.20;;;;;;5094761;28;20043;-76
2023/10/08 13:07:03;;;;;;;1.35;0.90;;;20.50;66.40;;;;;;5097806;28;20160;-76
2023/10/08 13:09:31;;;;;;;0.63;0.63;;;20.50;66.40;;;;;;5090814;28;20047;-76
2023/10/08 13:11:59;;;;;;;0.80;0.80;;;20.50;66.40;;;;;;5096513;28;20502;-76
2023/10/08 13:14:25;;;;;;;0.80;0.80;;;20.50;66.30;;;;;;5096832;28;20043;-76
2023/10/08 13:16:53;;;;;;;0.60;0.60;;;20.50;66.30;;;;;;5099303;28;20044;-76
2023/10/08 13:19:19;;;;;;;0.80;0.80;;;20.50;66.40;;;;;;5097209;28;20053;-76
2023/10/08 13:21:45;;;;;;;0.80;0.80;;;20.50;66.30;;;;;;5097596;28;20052;-76
2023/10/08 13:24:11;;;;;;;0.65;0.65;;;20.60;66.40;;;;;;5092668;28;20048;-76
2023/10/08 13:26:38;;;;;;;0.63;0.63;;;20.60;66.50;;;;;;5096906;28;20055;-76
2023/10/08 13:29:05;;;;;;;1.00;0.90;;;20.60;66.40;;;;;;5085875;28;20041;-76
2023/10/08 13:31:30;;;;;;;0.63;0.63;;;20.60;66.50;;;;;;5090300;28;20097;-76
2023/10/08 13:33:57;;;;;;;0.80;0.80;;;20.60;66.50;;;;;;5098761;28;20043;-76
2023/10/08 13:36:23;;;;;;;0.73;0.73;;;20.60;66.40;;;;;;5097757;28;20058;-76
2023/10/08 13:38:49;;;;;;;0.95;0.80;;;20.50;66.40;;;;;;5092025;28;20508;-76
2023/10/08 13:41:15;;;;;;;0.60;0.60;;;20.60;66.40;;;;;;5097860;28;20156;-76
2023/10/08 13:43:45;;;;;;;0.88;0.88;;;20.50;66.30;;;;;;5100410;28;20032;-76
2023/10/08 13:46:14;;;;;;;0.90;0.80;;;20.60;66.30;;;;;;5095211;28;20048;-76
2023/10/08 13:48:40;;;;;;;0.77;0.77;;;20.60;66.30;;;;;;5095535;28;20490;-76
2023/10/08 13:51:13;;;;;;;0.70;0.70;;;20.60;66.20;;;;;;5092100;28;20421;-76
2023/10/08 13:53:40;;;;;;;0.90;0.90;;;20.50;66.30;;;;;;5097429;28;20475;-76
2023/10/08 13:56:05;;;;;;;0.82;0.82;;;20.60;66.30;;;;;;5101657;28;20043;-76
2023/10/08 13:58:34;;;;;;;0.82;0.82;;;20.60;66.20;;;;;;5094836;28;20451;-76
2023/10/08 14:01:00;;;;;;;0.68;0.68;;;20.60;66.10;;;;;;5095893;28;20059;-76
2023/10/08 14:03:31;;;;;;;0.70;0.70;;;20.60;66.30;;;;;;5093875;28;20044;-76
2023/10/08 14:06:04;;;;;;;0.90;0.90;;;20.60;66.20;;;;;;5076762;28;20437;-76
2023/10/08 14:08:30;;;;;;;1.02;1.02;;;20.60;66.10;;;;;;5091589;28;20089;-76
2023/10/08 14:11:02;;;;;;;0.60;0.60;;;20.60;66.10;;;;;;5099266;28;20473;-76
2023/10/08 14:13:29;;;;;;;0.88;0.70;;;20.60;66.20;;;;;;5095006;28;20050;-76